26 settembre 2022

Tempo Codice Tempo metereologico Temp. Vista Base nuvolosa Vento METAR/SPECI
12:50
M
12 °C 9 km 2.600 ft 200° 200° 12 kt METAR EDLV 261050Z 20012KT 170V230 9000 -RA FEW015 SCT017 OVC026 12/10 Q1000
12:20
M
12 °C 10 km+ 1.600 ft 200° 200° 11 kt METAR EDLV 261020Z 20011KT 9999 -RA BKN016 OVC049 12/10 Q1000
11:50
V
12 °C 10 km+ - 200° 200° 11 kt METAR EDLV 260950Z 20011KT 170V230 9999 SCT015 12/09 Q1001
11:20
V
12 °C 10 km+ - 200° 200° 11 kt METAR EDLV 260920Z 20011KT 170V240 9999 SCT014 12/09 Q1001
10:50
V
11 °C 10 km+ - 200° 200° 11 kt METAR EDLV 260850Z 20011KT 170V230 9999 -RA FEW016 11/09 Q1001
10:20
V
12 °C 10 km+ 4.300 ft 190° 190° 11 kt METAR EDLV 260820Z 19011KT 150V220 9999 -RA FEW024 BKN043 12/09 Q1002
09:50
V
11 °C 10 km+ - 190° 190° 10 kt METAR EDLV 260750Z 19010KT 9999 FEW039 11/08 Q1002
09:20
V
11 °C 10 km+ - 190° 190° 10 kt METAR EDLV 260720Z 19010KT 9999 -RA FEW040 11/08 Q1002
08:50
V
11 °C 10 km+ - 200° 200° 8 kt METAR EDLV 260650Z 20008KT 9999 -RA SCT048 11/09 Q1003
08:20
V
11 °C 10 km+ - 190° 190° 9 kt METAR EDLV 260620Z 19009KT CAVOK 11/08 Q1003
07:50
V
11 °C 10 km+ - 210° 210° 8 kt METAR EDLV 260550Z 21008KT CAVOK 11/08 Q1004
07:20
V
11 °C 10 km+ - 220° 220° 7 kt METAR EDLV 260520Z 22007KT CAVOK 11/08 Q1004
06:50
V
11 °C 10 km+ - 210° 210° 8 kt METAR EDLV 260450Z 21008KT CAVOK 11/08 Q1005
06:20
V
11 °C 10 km+ - 200° 200° 8 kt METAR EDLV 260420Z 20008KT CAVOK 11/08 Q1005
05:50
V
11 °C 10 km+ - 210° 210° 8 kt METAR EDLV 260350Z 21008KT CAVOK 11/09 Q1006
05:20
V
11 °C 10 km+ - 200° 200° 7 kt METAR EDLV 260320Z 20007KT CAVOK 11/09 Q1006
04:50
V
11 °C 10 km+ 13.000 ft 190° 190° 7 kt METAR EDLV 260250Z AUTO 19007KT 9999 // BKN130/// OVC170/// 11/09 Q1007
04:20
V
10 °C 10 km+ 18.000 ft 200° 200° 7 kt METAR EDLV 260220Z AUTO 20007KT 9999 // FEW082/// BKN180/// BKN240/// 10/09 Q1007
03:50
V
10 °C 10 km+ 8.000 ft 200° 200° 6 kt METAR EDLV 260150Z AUTO 20006KT 9999 // SCT066/// BKN080/// OVC200/// 10/09 Q1008
03:20
V
10 °C 10 km+ 7.600 ft 200° 200° 6 kt METAR EDLV 260120Z AUTO 20006KT 9999 // SCT066/// BKN076/// OVC200/// 10/09 Q1008
02:50
V
10 °C 10 km+ 7.600 ft 200° 200° 5 kt METAR EDLV 260050Z AUTO 20005KT 9999 // SCT065/// BKN076/// BKN240/// 10/09 Q1009
02:20
V
10 °C 10 km+ 7.600 ft 190° 190° 5 kt METAR EDLV 260020Z AUTO 19005KT 9999 // FEW066/// OVC076/// 10/09 Q1009
01:50
V
10 °C 10 km+ 7.700 ft 200° 200° 4 kt METAR EDLV 252350Z AUTO 20004KT 9999 // FEW063/// BKN077/// 10/09 Q1010
01:20
V
10 °C 10 km+ 7.700 ft Var 000° 0 kt METAR EDLV 252320Z AUTO 00000KT 9999 // FEW035/// OVC077/// 10/09 Q1010
00:50
V
9 °C 10 km+ 7.600 ft 250° 250° 3 kt METAR EDLV 252250Z AUTO 25003KT 9999 // FEW056/// BKN076/// BKN250/// 09/08 Q1011
00:20
V
10 °C 10 km+ - 230° 230° 3 kt METAR EDLV 252220Z AUTO 23003KT 9999 // FEW079/// 10/09 Q1011

25 settembre 2022

Tempo Codice Tempo metereologico Temp. Vista Base nuvolosa Vento METAR/SPECI
23:50
V
8 °C 10 km+ - Var Var 1 kt METAR EDLV 252150Z VRB01KT CAVOK 08/07 Q1011
23:20
V
9 °C 10 km+ - Var Var 2 kt METAR EDLV 252120Z VRB02KT CAVOK 09/07 Q1011
22:50
V
10 °C 10 km+ - 250° 250° 1 kt METAR EDLV 252050Z 25001KT 9999 10/08 Q1012
22:20
V
10 °C 10 km+ - 230° 230° 1 kt METAR EDLV 252020Z 23001KT CAVOK 10/08 Q1012
21:50
V
11 °C 10 km+ - Var 000° 0 kt METAR EDLV 251950Z 00000KT CAVOK 11/09 Q1012
21:20
V
11 °C 10 km+ - Var Var 2 kt METAR EDLV 251920Z VRB02KT CAVOK 11/09 Q1012
20:50
V
11 °C 10 km+ - Var Var 1 kt METAR EDLV 251850Z VRB01KT CAVOK 11/09 Q1012
20:20
V
12 °C 10 km+ - 270° 270° 3 kt METAR EDLV 251820Z 27003KT CAVOK 12/09 Q1013
19:50
V
12 °C 10 km+ - 290° 290° 2 kt METAR EDLV 251750Z 29002KT CAVOK 12/10 Q1013
19:20
V
13 °C 10 km+ - Var Var 1 kt METAR EDLV 251720Z VRB01KT 9999 FEW048 13/10 Q1013
18:50
V
14 °C 10 km+ - 310° 310° 3 kt METAR EDLV 251650Z 31003KT 270V330 CAVOK 14/09 Q1013
18:20
V
15 °C 10 km+ - 320° 320° 5 kt METAR EDLV 251620Z 32005KT 290V350 9999 -RA NSC 15/08 Q1013
17:50
V
15 °C 10 km+ - 320° 320° 3 kt METAR EDLV 251550Z 32003KT 290V360 CAVOK 15/09 Q1013
17:20
V
16 °C 10 km+ - 320° 320° 5 kt METAR EDLV 251520Z 32005KT 300V020 CAVOK 16/09 Q1013
16:50
V
15 °C 10 km+ - Var Var 2 kt METAR EDLV 251450Z VRB02KT CAVOK 15/09 Q1013
16:20
V
14 °C 10 km+ 4.100 ft 250° 250° 3 kt METAR EDLV 251420Z 25003KT 220V330 9999 -RA BKN041 14/08 Q1014
15:50
V
15 °C 10 km+ - 330° 330° 5 kt METAR EDLV 251350Z 33005KT 290V010 9999 -RA SCT040 15/09 Q1014
15:20
V
17 °C 10 km+ - Var Var 4 kt METAR EDLV 251320Z VRB04KT 9999 FEW037 17/08 Q1014
14:50
V
17 °C 10 km+ - 320° 320° 5 kt METAR EDLV 251250Z 32005KT 250V060 9999 FEW035 17/07 Q1014
14:20
V
16 °C 10 km+ - 300° 300° 6 kt METAR EDLV 251220Z 30006KT 260V010 9999 FEW035 16/08 Q1014
13:50
V
16 °C 10 km+ - 320° 320° 5 kt METAR EDLV 251150Z 32005KT 260V010 9999 FEW034 16/07 Q1015
13:20
V
16 °C 10 km+ - Var Var 4 kt METAR EDLV 251120Z VRB04KT 9999 FEW032 SCT046 16/09 Q1015
12:50
V
15 °C 10 km+ 3.000 ft Var Var 6 kt METAR EDLV 251050Z VRB06KT 9999 BKN030 15/08 Q1015
12:20
V
15 °C 10 km+ - 330° 330° 5 kt METAR EDLV 251020Z 33005KT 290V020 9999 SCT025 15/08 Q1015
11:50
V
15 °C 10 km+ - 320° 320° 5 kt METAR EDLV 250950Z 32005KT 290V010 9999 SCT022 15/09 Q1015
11:20
V
15 °C 10 km+ - Var Var 4 kt METAR EDLV 250920Z VRB04KT 9999 SCT018 15/10 Q1015
10:50
V
14 °C 10 km+ - Var Var 2 kt METAR EDLV 250850Z VRB02KT CAVOK 14/10 Q1015
10:20
V
13 °C 10 km+ - 330° 330° 4 kt METAR EDLV 250820Z 33004KT 300V040 CAVOK 13/10 Q1015
09:50
V
12 °C 10 km+ - Var Var 3 kt METAR EDLV 250750Z VRB03KT CAVOK 12/10 Q1015
09:20
V
11 °C 10 km+ - 330° 330° 3 kt METAR EDLV 250720Z 33003KT 280V010 CAVOK 11/10 Q1015
08:50
V
10 °C 10 km+ - 310° 310° 3 kt METAR EDLV 250650Z 31003KT 280V340 CAVOK 10/09 Q1015
08:20
V
9 °C 10 km+ - 290° 290° 2 kt METAR EDLV 250620Z 29002KT CAVOK 09/08 Q1015
07:50
V
9 °C 10 km+ - 310° 310° 1 kt METAR EDLV 250550Z 31001KT CAVOK 09/08 Q1015
07:20
V
9 °C 10 km+ - Var Var 1 kt METAR EDLV 250520Z VRB01KT CAVOK 09/09 Q1015
06:50
V
10 °C 10 km+ - Var Var 2 kt METAR EDLV 250450Z VRB02KT CAVOK 10/09 Q1015
06:20
V
10 °C 10 km+ - Var Var 2 kt METAR EDLV 250420Z VRB02KT CAVOK 10/09 Q1015
05:50
V
10 °C 10 km+ - Var 000° 0 kt METAR EDLV 250350Z 00000KT CAVOK 10/09 Q1015
05:20
V
11 °C 10 km+ - Var Var 2 kt METAR EDLV 250320Z VRB02KT CAVOK 11/09 Q1015
04:50
V
11 °C 10 km+ - 330° 330° 3 kt METAR EDLV 250250Z 33003KT 290V070 CAVOK 11/10 Q1015
04:20
V
12 °C 10 km+ 8.000 ft Var Var 2 kt METAR EDLV 250220Z AUTO VRB02KT 9999 // FEW070/// OVC080/// 12/10 Q1015
03:50
V
12 °C 10 km+ 7.800 ft Var Var 1 kt METAR EDLV 250150Z AUTO VRB01KT 9999 // FEW065/// OVC078/// 12/10 Q1015
03:20
V
12 °C 10 km+ 6.300 ft Var Var 2 kt METAR EDLV 250120Z AUTO VRB02KT 9999 // FEW055/// BKN063/// BKN092/// 12/10 Q1015
02:50
V
12 °C 10 km+ 8.900 ft Var Var 1 kt METAR EDLV 250050Z AUTO VRB01KT 9999 // SCT051/// OVC089/// 12/10 Q1015
02:20
V
12 °C 10 km+ 8.700 ft Var Var 2 kt METAR EDLV 250020Z AUTO VRB02KT 9999 // FEW049/// SCT061/// OVC087/// 12/11 Q1015
01:50
V
13 °C 10 km+ 4.300 ft Var Var 1 kt METAR EDLV 242350Z AUTO VRB01KT 9999 // BKN043/// BKN060/// OVC082/// 13/11 Q1015
01:20
V
13 °C 10 km+ 5.700 ft 020° 020° 3 kt METAR EDLV 242320Z AUTO 02003KT 280V090 9999 // SCT043/// BKN057/// OVC084/// 13/11 Q1015
00:50
V
13 °C 10 km+ 4.000 ft Var Var 2 kt METAR EDLV 242250Z AUTO VRB02KT 9999 // FEW011/// OVC040/// 13/11 Q1015
00:20
V
13 °C 10 km+ 3.400 ft 030° 030° 3 kt METAR EDLV 242220Z AUTO 03003KT 340V090 9999 // OVC034/// 13/11 Q1015

24 settembre 2022

Tempo Codice Tempo metereologico Temp. Vista Base nuvolosa Vento METAR/SPECI
23:50
V
13 °C 10 km+ 3.000 ft 030° 030° 5 kt METAR EDLV 242150Z 03005KT 340V070 9999 OVC030 13/11 Q1015
23:20
M
13 °C 10 km+ 2.600 ft 020° 020° 4 kt METAR EDLV 242120Z 02004KT 320V100 9999 OVC026 13/11 Q1015
22:50
M
13 °C 10 km+ 2.400 ft 020° 020° 5 kt METAR EDLV 242050Z 02005KT 340V070 9999 FEW012 OVC024 13/11 Q1014
22:20
M
13 °C 10 km+ 2.200 ft Var Var 2 kt METAR EDLV 242020Z VRB02KT 9999 FEW011 OVC022 13/12 Q1014
21:50
M
13 °C 10 km+ 1.900 ft Var Var 3 kt METAR EDLV 241950Z VRB03KT 9999 SCT011 OVC019 13/12 Q1014
21:20
I
13 °C 9 km 700 ft Var Var 2 kt METAR EDLV 241920Z VRB02KT 9000 -DZ SCT004 BKN007 OVC017 13/12 Q1014
20:50
I
13 °C 5 km 600 ft Var Var 1 kt METAR EDLV 241850Z VRB01KT 5000 -RA BR FEW003 BKN006 OVC013 13/12 Q1014
20:20
L
13 °C 6 km 300 ft Var Var 2 kt METAR EDLV 241820Z VRB02KT 6000 DZ BKN003 BKN017 13/12 Q1014
19:50
I
13 °C 10 km+ 600 ft 320° 320° 3 kt METAR EDLV 241750Z 32003KT 290V350 9999 BKN006 13/12 Q1013
19:20
V
13 °C 10 km+ - 310° 310° 4 kt METAR EDLV 241720Z 31004KT 280V340 9999 FEW008 13/11 Q1013
18:50
V
14 °C 10 km+ - 320° 320° 6 kt METAR EDLV 241650Z 32006KT 290V030 9999 SCT009 14/12 Q1013
18:20
V
14 °C 10 km+ - 320° 320° 4 kt METAR EDLV 241620Z 32004KT 290V010 9999 FEW009 SCT011 14/13 Q1013
17:50
V
15 °C 10 km+ - 320° 320° 4 kt METAR EDLV 241550Z 32004KT 290V350 9999 FEW013 15/12 Q1013
17:20
V
15 °C 10 km+ - 330° 330° 3 kt METAR EDLV 241520Z 33003KT 260V060 CAVOK 15/12 Q1013
16:50
V
15 °C 10 km+ - 320° 320° 5 kt METAR EDLV 241450Z 32005KT 290V360 9999 -RA FEW015 15/12 Q1013
16:20
V
15 °C 10 km+ - 330° 330° 4 kt METAR EDLV 241420Z 33004KT 300V010 9999 FEW018 15/12 Q1013
15:50
V
16 °C 10 km+ - 330° 330° 4 kt METAR EDLV 241350Z 33004KT 270V050 9999 FEW013 16/13 Q1013
15:20
V
15 °C 10 km+ - 320° 320° 4 kt METAR EDLV 241320Z 32004KT 300V360 9999 FEW012 SCT016 15/13 Q1013
14:50
V
16 °C 10 km+ - 290° 290° 5 kt METAR EDLV 241250Z 29005KT 260V340 9999 SCT015 16/13 Q1013
14:20
M
15 °C 10 km+ 1.700 ft 270° 270° 4 kt METAR EDLV 241220Z 27004KT 230V310 9999 SCT012 BKN017 15/13 Q1013
13:50
M
15 °C 10 km+ 1.300 ft 250° 250° 5 kt METAR EDLV 241150Z 25005KT 220V320 9999 FEW011 BKN013 15/13 Q1013
Dati più vecchi

Noi e le terze parti seguiamo il tuo comportamento in internet sul nostro sito web con i cookie. Se continui, riteniamo che tu sia d'accordo con la nostra politica sui cookie. Per saperne di più